Time;durP1;ratioP1;P1;durP2;ratioP2;P2;SDS_P1;SDS_P2;PMS_P1;PMS_P2;Temp;Humidity;BMP_temperature;BMP_pressure;BME280_temperature;BME280_humidity;BME280_pressure;Samples;Min_cycle;Max_cycle;Signal;HPM_P1;HPM_P2
2023/09/13 00:00:49;;;;;;;0.00;0.00;;;;;;;;;;5034513;28;20127;-82
2023/09/13 00:03:15;;;;;;;0.00;0.00;;;;;;;;;;5036234;28;20045;-81
2023/09/13 00:05:42;;;;;;;0.00;0.00;;;;;;;;;;5035737;28;20179;-82
2023/09/13 00:08:08;;;;;;;0.00;0.00;;;;;;;;;;5034753;28;20539;-82
2023/09/13 00:10:34;;;;;;;0.00;0.00;;;;;;;;;;5018022;28;20049;-82
2023/09/13 00:13:00;;;;;;;0.00;0.00;;;;;;;;;;5036258;28;20065;-82
2023/09/13 00:15:26;;;;;;;0.00;0.00;;;;;;;;;;5036145;28;20041;-82
2023/09/13 00:17:52;;;;;;;0.00;0.00;;;;;;;;;;5035019;28;20448;-81
2023/09/13 00:20:18;;;;;;;0.00;0.00;;;;;;;;;;5034452;28;20068;-81
2023/09/13 00:22:45;;;;;;;0.00;0.00;;;;;;;;;;5035947;28;20542;-82
2023/09/13 00:25:11;;;;;;;0.00;0.00;;;;;;;;;;5035846;28;20080;-81
2023/09/13 00:27:38;;;;;;;0.00;0.00;;;;;;;;;;5034416;28;20053;-84
2023/09/13 00:30:07;;;;;;;0.00;0.00;;;;;;;;;;5034124;28;20128;-81
2023/09/13 00:32:32;;;;;;;0.00;0.00;;;;;;;;;;5017732;28;20045;-81
2023/09/13 00:34:58;;;;;;;0.00;0.00;;;;;;;;;;5034385;28;20052;-81
2023/09/13 00:37:24;;;;;;;0.00;0.00;;;;;;;;;;5033949;28;20109;-81
2023/09/13 00:39:50;;;;;;;0.00;0.00;;;;;;;;;;5034172;28;20049;-82
2023/09/13 00:42:16;;;;;;;0.00;0.00;;;;;;;;;;5033894;28;20044;-81
2023/09/13 00:44:42;;;;;;;0.00;0.00;;;;;;;;;;5034151;28;20033;-81
2023/09/13 00:47:08;;;;;;;0.00;0.00;;;;;;;;;;5035057;28;20128;-81
2023/09/13 00:49:34;;;;;;;0.00;0.00;;;;;;;;;;5033823;28;20124;-81
2023/09/13 00:52:01;;;;;;;0.00;0.00;;;;;;;;;;5034974;28;20134;-81
2023/09/13 00:54:27;;;;;;;0.00;0.00;;;;;;;;;;5033826;28;20405;-81
2023/09/13 00:56:53;;;;;;;0.00;0.00;;;;;;;;;;5033449;28;20489;-82
2023/09/13 00:59:19;;;;;;;0.00;0.00;;;;;;;;;;5032886;28;20057;-81
2023/09/13 01:01:46;;;;;;;0.00;0.00;;;;;;;;;;5033209;28;20481;-81
2023/09/13 01:04:12;;;;;;;0.00;0.00;;;;;;;;;;5033618;28;20177;-82
2023/09/13 01:06:38;;;;;;;0.00;0.00;;;;;;;;;;5034903;28;20112;-82
2023/09/13 01:09:05;;;;;;;0.00;0.00;;;;;;;;;;5033442;28;20049;-81
2023/09/13 01:11:31;;;;;;;0.00;0.00;;;;;;;;;;5034539;28;20132;-82
2023/09/13 01:13:57;;;;;;;0.00;0.00;;;;;;;;;;5033557;28;20129;-81
2023/09/13 01:16:41;;;;;;;0.00;0.00;;;;;;;;;;5034374;28;20116;-82
2023/09/13 01:19:38;;;;;;;0.00;0.00;;;;;;;;;;5033281;28;20057;-82
2023/09/13 01:22:16;;;;;;;0.00;0.00;;;;;;;;;;5034319;28;20449;-82
2023/09/13 01:25:01;;;;;;;0.00;0.00;;;;;;;;;;5034413;28;20040;-82
2023/09/13 01:27:38;;;;;;;0.00;0.00;;;;;;;;;;5033074;28;20048;-82
2023/09/13 01:30:04;;;;;;;0.00;0.00;;;;;;;;;;5034483;28;20045;-82
2023/09/13 01:32:34;;;;;;;0.00;0.00;;;;;;;;;;5032913;28;20073;-81
2023/09/13 01:35:00;;;;;;;0.00;0.00;;;;;;;;;;5016764;28;20037;-82
2023/09/13 01:37:26;;;;;;;0.00;0.00;;;;;;;;;;5034078;28;20435;-81
2023/09/13 01:39:52;;;;;;;0.00;0.00;;;;;;;;;;5032765;28;20456;-81
2023/09/13 01:42:18;;;;;;;0.00;0.00;;;;;;;;;;5016128;28;20056;-81
2023/09/13 01:44:45;;;;;;;0.00;0.00;;;;;;;;;;5033029;28;20485;-82
2023/09/13 01:47:13;;;;;;;0.00;0.00;;;;;;;;;;5032603;28;20079;-82
2023/09/13 01:49:39;;;;;;;0.00;0.00;;;;;;;;;;5034075;28;20121;-81
2023/09/13 01:52:05;;;;;;;0.00;0.00;;;;;;;;;;5032358;28;20100;-81
2023/09/13 01:54:35;;;;;;;0.00;0.00;;;;;;;;;;5033867;28;20485;-81
2023/09/13 01:57:01;;;;;;;0.00;0.00;;;;;;;;;;5032334;28;20096;-81
2023/09/13 01:59:27;;;;;;;0.00;0.00;;;;;;;;;;5033611;28;20473;-81
2023/09/13 02:01:53;;;;;;;0.00;0.00;;;;;;;;;;5015708;28;20064;-81
2023/09/13 02:04:19;;;;;;;0.00;0.00;;;;;;;;;;5032221;28;20038;-82
2023/09/13 02:06:45;;;;;;;0.00;0.00;;;;;;;;;;5032523;28;20049;-81
2023/09/13 02:09:11;;;;;;;0.00;0.00;;;;;;;;;;5032091;28;20057;-82
2023/09/13 02:11:37;;;;;;;0.00;0.00;;;;;;;;;;5031524;28;20522;-81
2023/09/13 02:14:03;;;;;;;0.00;0.00;;;;;;;;;;5032334;28;20056;-81
2023/09/13 02:16:29;;;;;;;0.00;0.00;;;;;;;;;;5032213;28;20042;-80
2023/09/13 02:18:55;;;;;;;0.00;0.00;;;;;;;;;;5032155;28;20400;-82
2023/09/13 02:21:21;;;;;;;0.00;0.00;;;;;;;;;;5032108;28;20432;-81
2023/09/13 02:23:47;;;;;;;0.00;0.00;;;;;;;;;;5015382;28;20048;-82
2023/09/13 02:26:20;;;;;;;0.00;0.00;;;;;;;;;;5031992;28;20044;-83
2023/09/13 02:28:46;;;;;;;0.00;0.00;;;;;;;;;;5032060;28;20429;-82
2023/09/13 02:31:12;;;;;;;0.00;0.00;;;;;;;;;;5033093;28;20425;-82
2023/09/13 02:33:38;;;;;;;0.00;0.00;;;;;;;;;;5031581;28;20045;-81
2023/09/13 02:36:05;;;;;;;0.00;0.00;;;;;;;;;;5033316;28;20076;-82
2023/09/13 02:38:31;;;;;;;0.00;0.00;;;;;;;;;;5031635;28;20057;-82
2023/09/13 02:40:56;;;;;;;0.00;0.00;;;;;;;;;;5031610;28;20041;-82
2023/09/13 02:43:22;;;;;;;0.00;0.00;;;;;;;;;;5031915;28;20033;-81
2023/09/13 02:45:50;;;;;;;0.00;0.00;;;;;;;;;;5031614;28;20045;-82
2023/09/13 02:48:16;;;;;;;0.00;0.00;;;;;;;;;;5031328;28;20045;-82
2023/09/13 02:50:42;;;;;;;0.00;0.00;;;;;;;;;;5032719;28;20056;-82
2023/09/13 02:53:08;;;;;;;0.00;0.00;;;;;;;;;;5031683;28;20055;-82
2023/09/13 02:55:34;;;;;;;0.00;0.00;;;;;;;;;;5031491;28;20499;-82
2023/09/13 02:57:59;;;;;;;0.00;0.00;;;;;;;;;;5031067;28;20111;-82
2023/09/13 03:00:25;;;;;;;0.00;0.00;;;;;;;;;;5031127;28;20156;-82
2023/09/13 03:02:51;;;;;;;0.00;0.00;;;;;;;;;;5031184;28;20401;-82
2023/09/13 03:05:18;;;;;;;0.00;0.00;;;;;;;;;;5031382;28;20044;-82
2023/09/13 03:07:44;;;;;;;0.00;0.00;;;;;;;;;;5031139;28;20041;-82
2023/09/13 03:10:10;;;;;;;0.00;0.00;;;;;;;;;;5032643;28;20117;-82
2023/09/13 03:12:36;;;;;;;0.00;0.00;;;;;;;;;;5031034;28;20049;-82
2023/09/13 03:15:03;;;;;;;0.00;0.00;;;;;;;;;;5032753;28;20578;-82
2023/09/13 03:17:29;;;;;;;0.00;0.00;;;;;;;;;;5032852;28;20409;-82
2023/09/13 03:19:55;;;;;;;0.00;0.00;;;;;;;;;;5032458;28;20397;-82
2023/09/13 03:22:21;;;;;;;0.00;0.00;;;;;;;;;;5030586;28;20042;-82
2023/09/13 03:24:47;;;;;;;0.00;0.00;;;;;;;;;;5032619;28;20366;-82
2023/09/13 03:27:13;;;;;;;0.00;0.00;;;;;;;;;;5014525;28;20045;-83
2023/09/13 03:29:39;;;;;;;0.00;0.00;;;;;;;;;;5031300;28;20041;-82
2023/09/13 03:32:06;;;;;;;0.00;0.00;;;;;;;;;;5031147;28;20052;-82
2023/09/13 03:34:32;;;;;;;0.00;0.00;;;;;;;;;;5032210;28;20473;-84
2023/09/13 03:36:58;;;;;;;0.00;0.00;;;;;;;;;;5031051;28;20046;-82
2023/09/13 03:39:28;;;;;;;0.00;0.00;;;;;;;;;;5030884;28;20087;-82
2023/09/13 03:41:56;;;;;;;0.00;0.00;;;;;;;;;;5030922;28;20049;-82
2023/09/13 03:44:22;;;;;;;0.00;0.00;;;;;;;;;;5032086;28;20485;-82
2023/09/13 03:46:48;;;;;;;0.00;0.00;;;;;;;;;;5031002;28;20045;-82
2023/09/13 03:49:14;;;;;;;0.00;0.00;;;;;;;;;;5032108;28;20029;-82
2023/09/13 03:51:40;;;;;;;0.00;0.00;;;;;;;;;;5031132;28;20050;-82
2023/09/13 03:54:06;;;;;;;0.00;0.00;;;;;;;;;;5032012;28;20098;-83
2023/09/13 03:56:32;;;;;;;0.00;0.00;;;;;;;;;;5030795;28;20516;-82
2023/09/13 03:58:58;;;;;;;0.00;0.00;;;;;;;;;;5030401;28;20162;-82
2023/09/13 04:01:24;;;;;;;0.00;0.00;;;;;;;;;;5030692;28;20069;-82
2023/09/13 04:03:50;;;;;;;0.00;0.00;;;;;;;;;;5030664;28;20482;-82
2023/09/13 04:06:16;;;;;;;0.00;0.00;;;;;;;;;;5031117;28;20373;-82
2023/09/13 04:08:42;;;;;;;0.00;0.00;;;;;;;;;;5030573;28;20037;-82
2023/09/13 04:11:09;;;;;;;0.00;0.00;;;;;;;;;;5014759;28;20046;-82
2023/09/13 04:13:35;;;;;;;0.00;0.00;;;;;;;;;;5031817;28;20124;-82
2023/09/13 04:16:07;;;;;;;0.00;0.00;;;;;;;;;;5030791;28;20048;-83
2023/09/13 04:18:33;;;;;;;0.00;0.00;;;;;;;;;;5031088;28;20045;-82
2023/09/13 04:20:59;;;;;;;0.00;0.00;;;;;;;;;;5031072;28;20489;-82
2023/09/13 04:23:25;;;;;;;0.00;0.00;;;;;;;;;;5030822;28;20055;-82
2023/09/13 04:25:51;;;;;;;0.00;0.00;;;;;;;;;;5031214;28;20473;-82
2023/09/13 04:28:17;;;;;;;0.00;0.00;;;;;;;;;;5031950;28;20040;-82
2023/09/13 04:30:43;;;;;;;0.00;0.00;;;;;;;;;;5030679;28;20049;-82
2023/09/13 04:33:09;;;;;;;0.00;0.00;;;;;;;;;;5031204;28;20041;-82
2023/09/13 04:35:35;;;;;;;0.00;0.00;;;;;;;;;;5034476;28;20388;-82
2023/09/13 04:38:01;;;;;;;0.00;0.00;;;;;;;;;;5034395;28;20053;-82
2023/09/13 04:40:27;;;;;;;0.00;0.00;;;;;;;;;;5034533;28;20554;-82
2023/09/13 04:43:08;;;;;;;0.00;0.00;;;;;;;;;;5034588;28;20098;-82
2023/09/13 04:45:34;;;;;;;0.00;0.00;;;;;;;;;;5035956;28;20124;-82
2023/09/13 04:48:00;;;;;;;0.00;0.00;;;;;;;;;;5035708;28;20117;-82
2023/09/13 04:50:27;;;;;;;0.00;0.00;;;;;;;;;;5034166;28;20046;-82
2023/09/13 04:52:53;;;;;;;0.00;0.00;;;;;;;;;;5035751;28;20056;-82
2023/09/13 04:55:20;;;;;;;0.00;0.00;;;;;;;;;;5033850;28;20033;-82
2023/09/13 04:57:46;;;;;;;0.00;0.00;;;;;;;;;;5034072;28;20050;-82
2023/09/13 05:00:14;;;;;;;0.00;0.00;;;;;;;;;;5034062;28;20386;-82
2023/09/13 05:02:40;;;;;;;0.00;0.00;;;;;;;;;;5033578;28;20049;-82
2023/09/13 05:05:06;;;;;;;0.00;0.00;;;;;;;;;;5033534;28;20129;-81
2023/09/13 05:07:32;;;;;;;0.00;0.00;;;;;;;;;;5033632;28;20125;-81
2023/09/13 05:09:58;;;;;;;0.00;0.00;;;;;;;;;;5033259;28;20049;-82
2023/09/13 05:12:24;;;;;;;0.00;0.00;;;;;;;;;;5033553;28;20405;-82
2023/09/13 05:14:50;;;;;;;0.00;0.00;;;;;;;;;;5033461;28;20132;-82
2023/09/13 05:17:16;;;;;;;0.00;0.00;;;;;;;;;;5033404;28;20049;-82
2023/09/13 05:19:42;;;;;;;0.00;0.00;;;;;;;;;;5033117;28;20049;-81
2023/09/13 05:22:08;;;;;;;0.00;0.00;;;;;;;;;;5033320;28;20042;-82
2023/09/13 05:24:34;;;;;;;0.00;0.00;;;;;;;;;;5033382;28;20164;-82
2023/09/13 05:27:00;;;;;;;0.00;0.00;;;;;;;;;;5033280;28;20052;-82
2023/09/13 05:29:26;;;;;;;0.00;0.00;;;;;;;;;;5033091;28;20048;-82
2023/09/13 05:31:52;;;;;;;0.00;0.00;;;;;;;;;;5033698;28;20042;-82
2023/09/13 05:34:18;;;;;;;0.00;0.00;;;;;;;;;;5033095;28;20511;-82
2023/09/13 05:36:44;;;;;;;0.00;0.00;;;;;;;;;;5034877;28;20099;-82
2023/09/13 05:39:10;;;;;;;0.00;0.00;;;;;;;;;;5033249;28;20500;-81
2023/09/13 05:41:37;;;;;;;0.00;0.00;;;;;;;;;;5033318;28;20046;-81
2023/09/13 05:44:03;;;;;;;0.00;0.00;;;;;;;;;;5033993;28;20060;-82
2023/09/13 05:46:29;;;;;;;0.00;0.00;;;;;;;;;;5033477;28;20048;-82
2023/09/13 05:48:55;;;;;;;0.00;0.00;;;;;;;;;;5016475;28;20041;-81
2023/09/13 05:51:21;;;;;;;0.00;0.00;;;;;;;;;;5033126;28;20037;-82
2023/09/13 05:53:47;;;;;;;0.00;0.00;;;;;;;;;;5033091;28;20389;-81
2023/09/13 05:56:13;;;;;;;0.00;0.00;;;;;;;;;;5032969;28;20052;-82
2023/09/13 05:58:43;;;;;;;0.00;0.00;;;;;;;;;;5033923;28;20135;-82
2023/09/13 06:01:09;;;;;;;0.00;0.00;;;;;;;;;;5032597;28;20057;-82
2023/09/13 06:03:35;;;;;;;0.00;0.00;;;;;;;;;;5034222;28;20041;-82
2023/09/13 06:06:02;;;;;;;0.00;0.00;;;;;;;;;;5032521;28;20125;-81
2023/09/13 06:08:28;;;;;;;0.00;0.00;;;;;;;;;;5032772;28;20042;-82
2023/09/13 06:10:54;;;;;;;0.00;0.00;;;;;;;;;;5032499;28;20041;-82
2023/09/13 06:13:20;;;;;;;0.00;0.00;;;;;;;;;;5016337;28;20049;-82
2023/09/13 06:15:46;;;;;;;0.00;0.00;;;;;;;;;;5015991;28;20080;-81
2023/09/13 06:18:12;;;;;;;0.00;0.00;;;;;;;;;;5016493;28;20041;-82
2023/09/13 06:20:38;;;;;;;0.00;0.00;;;;;;;;;;5032486;28;20435;-82
2023/09/13 06:23:04;;;;;;;0.00;0.00;;;;;;;;;;5032805;28;20046;-82
2023/09/13 06:25:30;;;;;;;0.00;0.00;;;;;;;;;;5032193;28;20052;-82
2023/09/13 06:27:56;;;;;;;0.00;0.00;;;;;;;;;;5032690;28;20385;-85
2023/09/13 06:30:22;;;;;;;0.00;0.00;;;;;;;;;;5032106;28;20041;-85
2023/09/13 06:32:48;;;;;;;0.00;0.00;;;;;;;;;;5032607;28;20477;-83
2023/09/13 06:35:14;;;;;;;0.00;0.00;;;;;;;;;;5032188;28;20060;-82
2023/09/13 06:37:41;;;;;;;0.00;0.00;;;;;;;;;;5032548;28;20045;-85
2023/09/13 06:40:07;;;;;;;0.00;0.00;;;;;;;;;;5032109;28;20412;-83
2023/09/13 06:42:33;;;;;;;0.00;0.00;;;;;;;;;;5033494;28;20052;-83
2023/09/13 06:45:00;;;;;;;0.00;0.00;;;;;;;;;;5031985;28;20072;-86
2023/09/13 06:47:28;;;;;;;0.00;0.00;;;;;;;;;;5032281;28;20056;-84
2023/09/13 06:49:55;;;;;;;0.00;0.00;;;;;;;;;;5015377;28;20485;-83
2023/09/13 06:52:20;;;;;;;0.00;0.00;;;;;;;;;;5032718;28;20044;-81
2023/09/13 06:54:46;;;;;;;0.00;0.00;;;;;;;;;;5033251;28;20041;-85
2023/09/13 06:57:13;;;;;;;0.00;0.00;;;;;;;;;;5031567;28;20049;-83
2023/09/13 06:59:39;;;;;;;0.00;0.00;;;;;;;;;;5031763;28;20053;-83
2023/09/13 07:02:05;;;;;;;0.00;0.00;;;;;;;;;;5031842;28;20072;-83
2023/09/13 07:04:32;;;;;;;0.00;0.00;;;;;;;;;;5031495;28;20538;-83
2023/09/13 07:06:58;;;;;;;0.00;0.00;;;;;;;;;;5032047;28;20087;-83
2023/09/13 07:09:24;;;;;;;0.00;0.00;;;;;;;;;;5031570;28;20056;-83
2023/09/13 07:11:50;;;;;;;0.00;0.00;;;;;;;;;;5031618;28;20069;-84
2023/09/13 07:14:17;;;;;;;0.00;0.00;;;;;;;;;;5032217;28;20045;-85
2023/09/13 07:16:42;;;;;;;0.00;0.00;;;;;;;;;;5031400;28;20042;-83
2023/09/13 07:19:08;;;;;;;0.00;0.00;;;;;;;;;;5031764;28;20071;-83
2023/09/13 07:21:34;;;;;;;0.00;0.00;;;;;;;;;;5014675;28;20049;-83
2023/09/13 07:24:00;;;;;;;0.00;0.00;;;;;;;;;;5032630;28;20045;-83
2023/09/13 07:26:26;;;;;;;0.00;0.00;;;;;;;;;;5031307;28;20124;-83
2023/09/13 07:28:52;;;;;;;0.00;0.00;;;;;;;;;;5032744;28;20533;-83
2023/09/13 07:31:18;;;;;;;0.00;0.00;;;;;;;;;;5032310;28;20041;-85
2023/09/13 07:33:44;;;;;;;0.00;0.00;;;;;;;;;;5032512;28;20125;-87
2023/09/13 07:36:10;;;;;;;0.00;0.00;;;;;;;;;;5030909;28;20070;-84
2023/09/13 07:38:37;;;;;;;0.00;0.00;;;;;;;;;;5031230;28;20041;-84
2023/09/13 07:41:03;;;;;;;0.00;0.00;;;;;;;;;;5014513;28;20485;-84
2023/09/13 07:43:29;;;;;;;0.00;0.00;;;;;;;;;;5031461;28;20423;-84
2023/09/13 07:45:55;;;;;;;0.00;0.00;;;;;;;;;;5030858;28;20129;-84
2023/09/13 07:48:23;;;;;;;0.00;0.00;;;;;;;;;;5031472;28;20093;-87
2023/09/13 07:50:49;;;;;;;0.00;0.00;;;;;;;;;;5032386;28;20155;-83
2023/09/13 07:53:15;;;;;;;0.00;0.00;;;;;;;;;;5031238;28;20045;-88
2023/09/13 07:55:41;;;;;;;0.00;0.00;;;;;;;;;;5031152;28;20374;-84
2023/09/13 07:58:07;;;;;;;0.00;0.00;;;;;;;;;;5030882;28;20065;-84
2023/09/13 08:00:34;;;;;;;0.00;0.00;;;;;;;;;;5031175;28;20051;-84
2023/09/13 08:03:00;;;;;;;0.00;0.00;;;;;;;;;;5031556;28;20053;-84
2023/09/13 08:05:27;;;;;;;0.00;0.00;;;;;;;;;;5032759;28;20041;-83
2023/09/13 08:07:53;;;;;;;0.00;0.00;;;;;;;;;;5033507;28;20037;-84
2023/09/13 08:10:21;;;;;;;0.00;0.00;;;;;;;;;;5034834;28;20508;-83
2023/09/13 08:12:48;;;;;;;0.00;0.00;;;;;;;;;;5034967;28;20045;-83
2023/09/13 08:15:14;;;;;;;0.00;0.00;;;;;;;;;;5034530;28;20057;-83
2023/09/13 08:17:40;;;;;;;0.00;0.00;;;;;;;;;;5034837;28;20050;-84
2023/09/13 08:20:08;;;;;;;0.00;0.00;;;;;;;;;;5035570;28;20485;-83
2023/09/13 08:22:34;;;;;;;0.00;0.00;;;;;;;;;;5018149;28;20049;-84
2023/09/13 08:25:00;;;;;;;0.00;0.00;;;;;;;;;;5034851;28;20125;-84
2023/09/13 08:27:26;;;;;;;0.00;0.00;;;;;;;;;;5035231;28;20491;-83
2023/09/13 08:29:53;;;;;;;0.00;0.00;;;;;;;;;;5035107;28;20074;-83
2023/09/13 08:32:19;;;;;;;0.00;0.00;;;;;;;;;;5034298;28;20041;-84
2023/09/13 08:34:45;;;;;;;0.00;0.00;;;;;;;;;;5035133;28;20524;-84
2023/09/13 08:37:12;;;;;;;0.00;0.00;;;;;;;;;;5034095;28;20045;-84
2023/09/13 08:39:38;;;;;;;0.00;0.00;;;;;;;;;;5034791;28;20050;-85
2023/09/13 08:42:04;;;;;;;0.00;0.00;;;;;;;;;;5034249;28;20045;-84
2023/09/13 08:44:31;;;;;;;0.00;0.00;;;;;;;;;;5034755;28;20398;-84
2023/09/13 08:47:01;;;;;;;0.00;0.00;;;;;;;;;;5033653;28;20074;-83
2023/09/13 08:49:27;;;;;;;0.00;0.00;;;;;;;;;;5033967;28;20045;-84
2023/09/13 08:51:53;;;;;;;0.00;0.00;;;;;;;;;;5034020;28;20056;-84
2023/09/13 08:54:20;;;;;;;0.00;0.00;;;;;;;;;;5034439;28;20040;-84
2023/09/13 08:56:46;;;;;;;0.00;0.00;;;;;;;;;;5034002;28;20049;-84
2023/09/13 08:59:16;;;;;;;0.00;0.00;;;;;;;;;;5033962;28;20370;-83
2023/09/13 09:01:45;;;;;;;0.00;0.00;;;;;;;;;;5034875;28;20045;-86
2023/09/13 09:04:14;;;;;;;0.00;0.00;;;;;;;;;;5035576;28;20366;-86
2023/09/13 09:06:40;;;;;;;0.00;0.00;;;;;;;;;;5018569;28;20048;-86
2023/09/13 09:09:07;;;;;;;0.00;0.00;;;;;;;;;;5033941;28;20128;-87
2023/09/13 09:11:34;;;;;;;0.00;0.00;;;;;;;;;;5017284;28;20053;-86
2023/09/13 09:14:00;;;;;;;0.00;0.00;;;;;;;;;;5033998;28;20049;-84
2023/09/13 09:16:27;;;;;;;0.00;0.00;;;;;;;;;;5033475;28;20578;-83
2023/09/13 09:18:53;;;;;;;0.00;0.00;;;;;;;;;;5033658;28;20047;-83
2023/09/13 09:21:20;;;;;;;0.00;0.00;;;;;;;;;;5034205;28;20466;-85
2023/09/13 09:23:46;;;;;;;0.00;0.00;;;;;;;;;;5033894;28;20386;-87
2023/09/13 09:26:12;;;;;;;0.00;0.00;;;;;;;;;;5035113;28;20073;-84
2023/09/13 09:28:38;;;;;;;0.00;0.00;;;;;;;;;;5033918;28;20034;-84
2023/09/13 09:31:05;;;;;;;0.00;0.00;;;;;;;;;;5034466;28;20048;-84
2023/09/13 09:33:32;;;;;;;0.00;0.00;;;;;;;;;;5033652;28;20071;-83
2023/09/13 09:36:01;;;;;;;0.00;0.00;;;;;;;;;;5032924;28;20046;-84
2023/09/13 09:38:28;;;;;;;0.00;0.00;;;;;;;;;;5033067;28;20049;-83
2023/09/13 09:41:01;;;;;;;0.00;0.00;;;;;;;;;;5032945;28;20048;-84
2023/09/13 09:43:27;;;;;;;0.00;0.00;;;;;;;;;;5016643;28;20065;-83
2023/09/13 09:45:54;;;;;;;0.00;0.00;;;;;;;;;;5033113;28;20041;-83
2023/09/13 09:48:20;;;;;;;0.00;0.00;;;;;;;;;;5034062;28;20104;-83
2023/09/13 09:50:47;;;;;;;0.00;0.00;;;;;;;;;;5032918;28;20056;-83
2023/09/13 09:53:14;;;;;;;0.00;0.00;;;;;;;;;;5034320;28;20076;-82
2023/09/13 09:55:41;;;;;;;0.00;0.00;;;;;;;;;;5033147;28;20045;-83
2023/09/13 09:58:07;;;;;;;0.00;0.00;;;;;;;;;;5032348;28;20053;-83
2023/09/13 10:00:52;;;;;;;0.00;0.00;;;;;;;;;;5032730;28;20405;-84
2023/09/13 10:03:19;;;;;;;0.00;0.00;;;;;;;;;;5033270;28;20150;-84
2023/09/13 10:05:55;;;;;;;0.00;0.00;;;;;;;;;;5034054;28;20052;-83
2023/09/13 10:08:41;;;;;;;0.00;0.00;;;;;;;;;;5032462;28;20065;-84
2023/09/13 10:11:11;;;;;;;0.00;0.00;;;;;;;;;;5032539;28;20144;-83
2023/09/13 10:13:38;;;;;;;0.00;0.00;;;;;;;;;;5033105;28;20461;-85
2023/09/13 10:16:05;;;;;;;0.00;0.00;;;;;;;;;;5032537;28;20067;-85
2023/09/13 10:18:36;;;;;;;0.00;0.00;;;;;;;;;;5032065;28;20068;-85
2023/09/13 10:21:03;;;;;;;0.00;0.00;;;;;;;;;;5033710;28;20427;-85
2023/09/13 10:23:31;;;;;;;0.00;0.00;;;;;;;;;;5032208;28;20472;-85
2023/09/13 10:25:59;;;;;;;0.00;0.00;;;;;;;;;;5032243;28;20052;-84
2023/09/13 10:28:27;;;;;;;0.00;0.00;;;;;;;;;;5032175;28;20038;-87
2023/09/13 10:30:54;;;;;;;0.00;0.00;;;;;;;;;;5031527;28;20697;-85
2023/09/13 10:33:21;;;;;;;0.00;0.00;;;;;;;;;;5031723;28;20045;-84
2023/09/13 10:35:54;;;;;;;0.00;0.00;;;;;;;;;;5032133;28;20436;-85
2023/09/13 10:38:46;;;;;;;0.00;0.00;;;;;;;;;;5031875;28;20049;-84
2023/09/13 10:41:17;;;;;;;0.00;0.00;;;;;;;;;;5012344;28;20661;-84
2023/09/13 10:43:43;;;;;;;0.00;0.00;;;;;;;;;;5031722;28;20041;-84
2023/09/13 10:46:10;;;;;;;0.00;0.00;;;;;;;;;;5015449;28;20182;-84
2023/09/13 10:48:36;;;;;;;0.00;0.00;;;;;;;;;;5031610;28;20041;-84
2023/09/13 10:51:04;;;;;;;0.00;0.00;;;;;;;;;;5015231;28;20051;-84
2023/09/13 10:53:30;;;;;;;0.00;0.00;;;;;;;;;;5032492;28;20543;-83
2023/09/13 10:55:56;;;;;;;0.00;0.00;;;;;;;;;;5031474;28;20685;-85
2023/09/13 10:58:23;;;;;;;0.00;0.00;;;;;;;;;;5031424;28;20408;-84
2023/09/13 11:00:54;;;;;;;0.00;0.00;;;;;;;;;;5015046;28;20060;-84
2023/09/13 11:03:21;;;;;;;0.00;0.00;;;;;;;;;;5031661;28;20080;-84
2023/09/13 11:05:49;;;;;;;0.00;0.00;;;;;;;;;;5031460;28;20034;-85
2023/09/13 11:08:27;;;;;;;0.00;0.00;;;;;;;;;;5031363;28;20041;-84
2023/09/13 11:10:53;;;;;;;0.00;0.00;;;;;;;;;;5014725;28;20112;-84
2023/09/13 11:13:19;;;;;;;0.00;0.00;;;;;;;;;;5031244;28;20030;-84
2023/09/13 11:15:49;;;;;;;0.00;0.00;;;;;;;;;;5031299;28;20520;-84
2023/09/13 11:18:15;;;;;;;0.00;0.00;;;;;;;;;;5014623;28;20033;-84
2023/09/13 11:20:42;;;;;;;0.00;0.00;;;;;;;;;;5031232;28;20485;-84
2023/09/13 11:23:18;;;;;;;0.00;0.00;;;;;;;;;;5031019;28;20112;-84
2023/09/13 11:25:54;;;;;;;0.00;0.00;;;;;;;;;;5031422;28;20049;-84
2023/09/13 11:28:29;;;;;;;0.00;0.00;;;;;;;;;;5030762;28;20041;-83
2023/09/13 11:30:55;;;;;;;;;;;;;;;;;;5031759;28;20078;-84
2023/09/13 11:33:21;;;;;;;0.00;0.00;;;;;;;;;;5032204;28;19917;-84
2023/09/13 11:35:50;;;;;;;0.00;0.00;;;;;;;;;;5031139;28;20037;-84
2023/09/13 11:38:17;;;;;;;0.00;0.00;;;;;;;;;;5030937;28;20053;-84
2023/09/13 11:40:48;;;;;;;0.00;0.00;;;;;;;;;;5031422;28;20041;-84
2023/09/13 11:43:22;;;;;;;0.00;0.00;;;;;;;;;;5033684;28;20473;-84
2023/09/13 11:45:49;;;;;;;0.00;0.00;;;;;;;;;;5035932;28;20080;-84
2023/09/13 11:48:42;;;;;;;0.00;0.00;;;;;;;;;;5034872;28;20136;-84
2023/09/13 11:51:12;;;;;;;0.00;0.00;;;;;;;;;;5031477;28;20507;-84
2023/09/13 11:53:38;;;;;;;0.00;0.00;;;;;;;;;;5034466;28;20037;-84
2023/09/13 11:56:04;;;;;;;0.20;0.03;;;;;;;;;;5034985;28;20041;-85
2023/09/13 11:58:36;;;;;;;0.00;0.00;;;;;;;;;;5034330;28;20067;-84
2023/09/13 12:01:06;;;;;;;0.00;0.00;;;;;;;;;;5018244;28;20048;-84
2023/09/13 12:03:33;;;;;;;0.00;0.00;;;;;;;;;;5035836;28;20045;-89
2023/09/13 12:05:59;;;;;;;0.00;0.00;;;;;;;;;;5034944;28;20124;-85
2023/09/13 12:08:27;;;;;;;0.00;0.00;;;;;;;;;;5034585;28;20388;-85
2023/09/13 12:10:54;;;;;;;0.00;0.00;;;;;;;;;;5034908;28;20049;-85
2023/09/13 12:13:19;;;;;;;0.00;0.00;;;;;;;;;;5017900;28;20037;-87
2023/09/13 12:16:02;;;;;;;0.00;0.00;;;;;;;;;;5034886;28;20099;-85
2023/09/13 12:18:30;;;;;;;0.00;0.00;;;;;;;;;;5034253;28;20079;-85
2023/09/13 12:20:57;;;;;;;0.00;0.00;;;;;;;;;;5034450;28;20100;-85
2023/09/13 12:23:23;;;;;;;0.00;0.00;;;;;;;;;;5034505;28;20076;-85
2023/09/13 12:25:49;;;;;;;0.00;0.00;;;;;;;;;;5034491;28;20053;-84
2023/09/13 12:28:32;;;;;;;0.00;0.00;;;;;;;;;;5033917;28;20390;-86
2023/09/13 12:30:58;;;;;;;0.00;0.00;;;;;;;;;;5033976;28;20080;-85
2023/09/13 12:33:25;;;;;;;0.00;0.00;;;;;;;;;;5033891;28;20045;-85
2023/09/13 12:35:51;;;;;;;0.00;0.00;;;;;;;;;;5034212;28;20420;-86
2023/09/13 12:38:19;;;;;;;0.00;0.00;;;;;;;;;;5033977;28;20059;-85
2023/09/13 12:40:54;;;;;;;0.00;0.00;;;;;;;;;;5034315;28;20049;-86
2023/09/13 12:43:27;;;;;;;0.00;0.00;;;;;;;;;;5017549;28;20095;-86
2023/09/13 12:45:54;;;;;;;0.00;0.00;;;;;;;;;;5034307;28;20037;-86
2023/09/13 12:48:20;;;;;;;0.00;0.00;;;;;;;;;;5033988;28;20397;-85
2023/09/13 12:50:47;;;;;;;0.00;0.00;;;;;;;;;;5017504;28;20041;-85
2023/09/13 12:53:14;;;;;;;0.00;0.00;;;;;;;;;;5017216;28;20076;-86
2023/09/13 12:55:40;;;;;;;0.00;0.00;;;;;;;;;;5033603;28;20061;-85
2023/09/13 12:58:06;;;;;;;0.00;0.00;;;;;;;;;;5034380;28;20099;-85
2023/09/13 13:00:33;;;;;;;0.00;0.00;;;;;;;;;;5033609;28;20041;-85
2023/09/13 13:02:59;;;;;;;0.00;0.00;;;;;;;;;;5033368;28;20045;-84
2023/09/13 13:05:26;;;;;;;0.00;0.00;;;;;;;;;;5033696;28;20458;-86
2023/09/13 13:07:52;;;;;;;0.00;0.00;;;;;;;;;;5033639;28;20094;-85
2023/09/13 13:10:18;;;;;;;0.00;0.00;;;;;;;;;;5033513;28;20075;-85
2023/09/13 13:12:44;;;;;;;0.00;0.00;;;;;;;;;;5033404;28;20037;-85
2023/09/13 13:15:11;;;;;;;0.00;0.00;;;;;;;;;;5033660;28;20048;-85
2023/09/13 13:17:38;;;;;;;0.00;0.00;;;;;;;;;;5034560;28;20087;-85
2023/09/13 13:20:05;;;;;;;0.00;0.00;;;;;;;;;;5032981;28;20043;-85
2023/09/13 13:22:31;;;;;;;0.00;0.00;;;;;;;;;;5033182;28;20041;-86
2023/09/13 13:24:57;;;;;;;0.00;0.00;;;;;;;;;;5034733;28;20041;-85
2023/09/13 13:27:24;;;;;;;0.00;0.00;;;;;;;;;;5033613;28;20038;-84
2023/09/13 13:29:50;;;;;;;0.00;0.00;;;;;;;;;;5033118;28;20045;-85
2023/09/13 13:32:16;;;;;;;0.00;0.00;;;;;;;;;;5033637;28;20385;-85
2023/09/13 13:34:43;;;;;;;0.00;0.00;;;;;;;;;;5032999;28;20041;-85
2023/09/13 13:37:09;;;;;;;0.00;0.00;;;;;;;;;;5033619;28;20473;-85
2023/09/13 13:39:35;;;;;;;0.00;0.00;;;;;;;;;;5032723;28;20079;-85
2023/09/13 13:42:02;;;;;;;0.00;0.00;;;;;;;;;;5034313;28;20068;-85
2023/09/13 13:44:28;;;;;;;0.00;0.00;;;;;;;;;;5032830;28;20041;-84
2023/09/13 13:46:54;;;;;;;0.00;0.00;;;;;;;;;;5033411;28;20087;-85
2023/09/13 13:49:20;;;;;;;0.00;0.00;;;;;;;;;;5033246;28;20050;-84
2023/09/13 13:51:49;;;;;;;0.00;0.00;;;;;;;;;;5033756;28;20056;-85
2023/09/13 13:54:15;;;;;;;0.00;0.00;;;;;;;;;;5032926;28;20056;-85
2023/09/13 13:56:42;;;;;;;0.00;0.00;;;;;;;;;;5032963;28;20492;-84
2023/09/13 13:59:12;;;;;;;0.00;0.00;;;;;;;;;;5032178;28;20072;-85
2023/09/13 14:01:38;;;;;;;0.00;0.00;;;;;;;;;;5032875;28;20484;-85
2023/09/13 14:04:04;;;;;;;0.00;0.00;;;;;;;;;;5032459;28;20551;-85
2023/09/13 14:06:30;;;;;;;0.00;0.00;;;;;;;;;;5015985;28;20049;-85
2023/09/13 14:08:56;;;;;;;0.00;0.00;;;;;;;;;;5033496;28;20041;-85
2023/09/13 14:11:22;;;;;;;0.00;0.00;;;;;;;;;;5032098;28;20529;-85
2023/09/13 14:13:48;;;;;;;0.00;0.00;;;;;;;;;;5015691;28;20096;-85
2023/09/13 14:16:14;;;;;;;0.00;0.00;;;;;;;;;;5032318;28;20460;-85
2023/09/13 14:18:40;;;;;;;0.00;0.00;;;;;;;;;;5032269;28;20041;-85
2023/09/13 14:21:06;;;;;;;0.00;0.00;;;;;;;;;;5031851;28;20045;-85
2023/09/13 14:23:32;;;;;;;0.00;0.00;;;;;;;;;;5032511;28;20038;-85
2023/09/13 14:25:58;;;;;;;0.00;0.00;;;;;;;;;;5032136;28;20059;-85
2023/09/13 14:28:24;;;;;;;0.00;0.00;;;;;;;;;;5032124;28;20439;-85
2023/09/13 14:30:53;;;;;;;0.00;0.00;;;;;;;;;;5032071;28;20037;-85
2023/09/13 14:33:19;;;;;;;0.00;0.00;;;;;;;;;;5031911;28;20041;-85
2023/09/13 14:35:45;;;;;;;0.00;0.00;;;;;;;;;;5032234;28;20412;-85
2023/09/13 14:38:11;;;;;;;0.00;0.00;;;;;;;;;;5033384;28;20037;-84
2023/09/13 14:40:37;;;;;;;0.00;0.00;;;;;;;;;;5031736;28;20073;-85
2023/09/13 14:43:03;;;;;;;0.00;0.00;;;;;;;;;;5032945;28;20520;-84